Airfield :
LOGIN :

Register | Disclaimer

   EN    FR    IT 

 










Legend :    VFR   Marginal VFR   IFR   Intensive IFR   Very Intensive IFR
Visi :
Ceiling :
>= 8 km
>= 3000ft
5 to 8 km
1000 to 3000 ft
1500m to 5 km
500 to 1000 ft
800 to 1500m
200 to 500 ft
< 800m
< 200 ft
Symbols :   Thunderstorms  Fog  Heavy snow  Heavy precipitations  Wind > 20 kt
SIGMETs :     Misc.  Thunderstorms  Icing  Turbulence  Mountain Waves  Volcanic Ashes







- Airport Elevation : 194 ft


EBCV - Chièvres

CURRENT METAR :
  • 161725Z AUTO 33008KT 9999 BKN059/// 26/15 Q1014 BLU

EXPIRED METARs :
  • 161655Z AUTO 29006KT 9999 FEW059/// 26/14 Q1014 BLU
  • 161625Z AUTO 31006KT 9999 NCD 26/14 Q1014 BLU
  • 161555Z AUTO 28008KT 9999 NCD 26/14 Q1014 BLU
  • 161525Z AUTO 30007KT 9999 FEW047/// 26/15 Q1014 BLU
  • 161455Z AUTO 29007KT 9999 FEW047/// 27/15 Q1014 BLU
  • 161425Z AUTO 25008KT 9999 FEW047/// 27/14 Q1014 BLU

TAF TAF EBCV
Valid from the 16 at 13:00 until the 16 at 22:00 UTC


161141Z 1613/1622 22006KT 9999 SCT030
BECMG 1616/1618 31008KT
TEMPO 1615/1622 31010G20KT 4000 SHRA BKN025TCU
PROB30
TEMPO 1617/1722 31015G25KT 2000 TSRA BKN015CB BY EBWM
No reported NOTAMs for that airfield.



MET'MAP, your aeronautical weather chart ! - Copyright ORBIFLY December 2007 - Disclaimer

ORBIFLY MET'MAP TEAM :

Programming & Development : Alexandra Zaïnal
Concept & Development : Baudouin d'Aumeries
Co-Development & Prog : Marc-Olivier Méhu
Technical & hardware support : Manuel Goepfert

Contact : metmap@orbifly.com




SOURCES & CREDITS :

   NOAA